createdAt,value
2019-04-29T00:02:31.006Z,7.87
2019-04-29T00:05:00.713Z,7.87
2019-04-29T00:07:31.014Z,7.91
2019-04-29T00:10:01.204Z,7.86
2019-04-29T00:12:31.707Z,7.86
2019-04-29T00:15:25.182Z,7.88
2019-04-29T00:17:59.461Z,7.80
2019-04-29T00:20:50.158Z,7.85
2019-04-29T00:23:20.285Z,7.84
2019-04-29T00:25:50.590Z,7.78
2019-04-29T00:28:20.720Z,7.75
2019-04-29T00:30:50.874Z,7.78
2019-04-29T00:33:21.039Z,7.75
2019-04-29T00:35:51.346Z,7.78
2019-04-29T00:38:44.444Z,7.85
2019-04-29T00:41:32.062Z,7.80
2019-04-29T00:44:07.691Z,7.82
2019-04-29T00:46:37.888Z,7.85
2019-04-29T00:49:08.033Z,7.90
2019-04-29T00:51:38.191Z,7.89
2019-04-29T00:54:22.595Z,7.83
2019-04-29T00:56:52.773Z,7.78
2019-04-29T00:59:22.945Z,7.81
2019-04-29T01:01:53.200Z,7.81
2019-04-29T01:04:23.418Z,7.72
2019-04-29T01:06:53.522Z,7.74
2019-04-29T01:09:23.734Z,7.76
2019-04-29T01:11:53.945Z,7.76
2019-04-29T01:14:24.165Z,7.76
2019-04-29T01:16:54.338Z,7.76
2019-04-29T01:19:24.451Z,7.70
2019-04-29T01:21:54.561Z,7.64
2019-04-29T01:24:24.706Z,7.63
2019-04-29T01:27:07.011Z,7.62
2019-04-29T01:29:37.192Z,7.65
2019-04-29T01:32:07.826Z,7.64
2019-04-29T01:34:44.342Z,7.63
2019-04-29T01:37:14.531Z,7.68
2019-04-29T01:39:50.341Z,7.71
2019-04-29T01:42:24.437Z,7.72
2019-04-29T01:44:54.527Z,7.68
2019-04-29T01:47:24.740Z,7.61
2019-04-29T01:49:54.910Z,7.54
2019-04-29T01:52:25.050Z,7.59
2019-04-29T01:54:55.196Z,7.60
2019-04-29T01:57:25.371Z,7.69
2019-04-29T01:59:55.539Z,7.65
2019-04-29T02:02:25.655Z,7.62
2019-04-29T02:04:55.774Z,7.70
2019-04-29T02:07:25.949Z,7.73
2019-04-29T02:10:04.416Z,7.69
2019-04-29T02:12:34.526Z,7.71
2019-04-29T02:15:05.273Z,7.70
2019-04-29T02:17:35.503Z,7.70
2019-04-29T02:20:06.273Z,7.64
2019-04-29T02:22:48.083Z,7.65
2019-04-29T02:25:26.799Z,7.61
2019-04-29T02:27:56.945Z,7.64
2019-04-29T02:30:52.917Z,7.53
2019-04-29T02:33:23.104Z,7.60
2019-04-29T02:35:54.209Z,7.56
2019-04-29T02:38:31.944Z,7.52
2019-04-29T02:41:15.447Z,7.55
2019-04-29T02:43:47.562Z,7.50
2019-04-29T02:46:17.819Z,7.49
2019-04-29T02:48:48.009Z,7.40
2019-04-29T02:51:37.113Z,7.43
2019-04-29T02:54:07.261Z,7.44
2019-04-29T02:56:37.860Z,7.44
2019-04-29T02:59:08.410Z,7.46
2019-04-29T03:01:52.393Z,7.50
2019-04-29T03:04:27.579Z,7.45
2019-04-29T03:06:57.792Z,7.44
2019-04-29T03:09:31.245Z,7.46
2019-04-29T03:12:01.909Z,7.44
2019-04-29T03:14:32.439Z,7.43
2019-04-29T03:17:02.785Z,7.46
2019-04-29T03:19:36.644Z,7.39
2019-04-29T03:22:07.590Z,7.47
2019-04-29T03:24:37.709Z,7.42
2019-04-29T03:27:07.926Z,7.39
2019-04-29T03:29:38.908Z,7.47
2019-04-29T03:32:09.057Z,7.41
2019-04-29T03:34:40.328Z,7.46
2019-04-29T03:37:10.447Z,7.34
2019-04-29T03:39:40.767Z,7.37
2019-04-29T03:42:10.949Z,7.45
2019-04-29T03:44:41.116Z,7.45
2019-04-29T03:47:11.336Z,7.42
2019-04-29T03:49:41.517Z,7.37
2019-04-29T03:52:11.694Z,7.47
2019-04-29T03:54:41.850Z,7.46
2019-04-29T03:57:14.362Z,7.44
2019-04-29T03:59:44.519Z,7.51
2019-04-29T04:02:24.314Z,7.46
2019-04-29T04:05:14.586Z,7.44
2019-04-29T04:07:49.304Z,7.45
2019-04-29T04:10:19.445Z,7.43
2019-04-29T04:12:49.581Z,7.48
2019-04-29T04:15:19.902Z,7.45
2019-04-29T04:18:21.282Z,7.48
2019-04-29T04:20:51.643Z,7.45
2019-04-29T04:23:21.825Z,7.42
2019-04-29T04:25:52.986Z,7.48
2019-04-29T04:28:27.266Z,7.51
2019-04-29T04:30:57.498Z,7.50
2019-04-29T04:33:27.643Z,7.52
2019-04-29T04:35:57.919Z,7.59
2019-04-29T04:38:29.034Z,7.61
2019-04-29T04:41:04.725Z,7.58
2019-04-29T04:43:34.873Z,7.65
2019-04-29T04:46:06.719Z,7.61
2019-04-29T04:48:36.844Z,7.67
2019-04-29T04:51:07.130Z,7.68
2019-04-29T04:53:44.108Z,7.69
2019-04-29T04:56:22.115Z,7.74
2019-04-29T04:58:57.378Z,7.73
2019-04-29T05:01:29.980Z,7.81
2019-04-29T05:04:00.142Z,7.85
2019-04-29T05:06:30.372Z,7.89
2019-04-29T05:09:02.380Z,7.89
2019-04-29T05:11:38.488Z,7.97
2019-04-29T05:14:10.039Z,7.99
2019-04-29T05:16:40.260Z,8.06
2019-04-29T05:19:12.355Z,8.10
2019-04-29T05:21:51.911Z,8.30
2019-04-29T05:24:22.208Z,8.23
2019-04-29T05:27:03.017Z,8.24
2019-04-29T05:29:36.493Z,8.24
2019-04-29T05:32:11.918Z,8.30
2019-04-29T05:34:48.017Z,8.36
2019-04-29T05:37:32.638Z,8.43
2019-04-29T05:40:02.765Z,8.52
2019-04-29T05:42:38.302Z,8.53
2019-04-29T05:45:31.044Z,8.57
2019-04-29T05:48:09.648Z,8.70
2019-04-29T05:50:52.130Z,8.73
2019-04-29T05:53:29.986Z,8.69
2019-04-29T05:56:00.180Z,8.78
2019-04-29T05:58:32.886Z,8.80
2019-04-29T06:01:17.260Z,8.80
2019-04-29T06:03:47.484Z,8.65
2019-04-29T06:06:17.918Z,8.71
2019-04-29T06:08:50.654Z,8.71
2019-04-29T06:11:23.177Z,8.70
2019-04-29T06:13:56.399Z,8.77
2019-04-29T06:16:26.625Z,8.73
2019-04-29T06:19:00.259Z,8.84
2019-04-29T06:21:34.084Z,8.95
2019-04-29T06:24:06.355Z,9.22
2019-04-29T06:26:36.656Z,9.26
2019-04-29T06:29:06.839Z,9.26
2019-04-29T06:31:39.035Z,9.35
2019-04-29T06:34:10.642Z,9.47
2019-04-29T06:36:42.349Z,9.56
2019-04-29T06:39:12.488Z,9.73
2019-04-29T06:41:48.143Z,9.63
2019-04-29T06:44:18.345Z,9.69
2019-04-29T06:46:50.229Z,9.68
2019-04-29T06:49:20.318Z,9.78
2019-04-29T06:51:52.381Z,9.80
2019-04-29T06:54:24.391Z,9.84
2019-04-29T06:56:54.459Z,9.94
2019-04-29T06:59:26.743Z,9.93
2019-04-29T07:01:56.889Z,9.90
2019-04-29T07:04:30.637Z,10.10
2019-04-29T07:07:01.901Z,10.19
2019-04-29T07:09:33.679Z,10.07
2019-04-29T07:12:03.825Z,10.08
2019-04-29T07:14:38.323Z,9.99
2019-04-29T07:17:07.136Z,9.99
2019-04-29T07:19:37.378Z,10.03
2019-04-29T07:22:07.731Z,9.75
2019-04-29T07:24:37.898Z,9.83
2019-04-29T07:27:08.507Z,9.91
2019-04-29T07:29:38.690Z,9.99
2019-04-29T07:32:09.612Z,10.23
2019-04-29T07:34:40.834Z,10.11
2019-04-29T07:37:10.962Z,9.90
2019-04-29T07:39:41.126Z,9.87
2019-04-29T07:42:12.681Z,9.87
2019-04-29T07:45:01.783Z,9.80
2019-04-29T07:47:33.539Z,9.66
2019-04-29T07:50:06.076Z,9.57
2019-04-29T07:52:36.353Z,9.65
2019-04-29T07:55:07.221Z,9.68
2019-04-29T07:57:37.393Z,9.60
2019-04-29T08:00:12.860Z,9.41
2019-04-29T08:02:42.073Z,9.38
2019-04-29T08:05:14.785Z,9.26
2019-04-29T08:07:44.968Z,9.21
2019-04-29T08:10:23.727Z,9.16
2019-04-29T08:12:49.160Z,9.07
2019-04-29T08:15:21.897Z,9.11
2019-04-29T08:18:05.581Z,9.15
2019-04-29T08:20:23.995Z,9.12
2019-04-29T08:22:58.439Z,9.05
2019-04-29T08:25:28.244Z,9.03
2019-04-29T08:28:06.633Z,9.01
2019-04-29T08:30:45.830Z,8.99
2019-04-29T08:33:16.210Z,9.00
2019-04-29T08:35:46.979Z,9.04
2019-04-29T08:38:24.233Z,9.10
2019-04-29T08:41:00.213Z,9.05
2019-04-29T08:43:42.226Z,8.96
2019-04-29T08:46:34.069Z,8.99
2019-04-29T08:49:07.801Z,8.88
2019-04-29T08:51:38.222Z,8.85
2019-04-29T08:54:08.815Z,8.88
2019-04-29T08:56:42.515Z,8.92
2019-04-29T08:59:10.908Z,8.87
2019-04-29T09:01:43.080Z,8.93
2019-04-29T09:04:16.630Z,8.99
2019-04-29T09:06:47.662Z,8.85
2019-04-29T09:09:28.648Z,8.93
2019-04-29T09:11:51.894Z,8.87
2019-04-29T09:14:22.108Z,8.90
2019-04-29T09:16:52.368Z,8.89
2019-04-29T09:19:22.631Z,8.87
2019-04-29T09:21:57.444Z,8.93
2019-04-29T09:24:27.934Z,8.89
2019-04-29T09:27:04.910Z,8.93
2019-04-29T09:29:37.436Z,9.04
2019-04-29T09:32:07.892Z,9.03
2019-04-29T09:34:39.194Z,9.00
2019-04-29T09:37:09.406Z,9.04
2019-04-29T09:39:43.908Z,9.07
2019-04-29T09:42:50.155Z,9.07
2019-04-29T09:45:44.224Z,9.04
2019-04-29T09:48:14.365Z,9.09
2019-04-29T09:50:44.540Z,9.14
2019-04-29T09:53:14.682Z,9.04
2019-04-29T09:55:44.858Z,8.93
2019-04-29T09:58:15.002Z,8.97
2019-04-29T10:01:04.554Z,9.04
2019-04-29T10:03:53.860Z,9.03
2019-04-29T10:06:29.918Z,9.05
2019-04-29T10:09:00.043Z,9.19
2019-04-29T10:11:30.180Z,9.21
2019-04-29T10:14:00.270Z,9.22
2019-04-29T10:16:52.693Z,9.13
2019-04-29T10:19:40.756Z,9.13
2019-04-29T10:22:11.029Z,9.13
2019-04-29T10:24:41.202Z,9.13
2019-04-29T10:27:15.861Z,9.15
2019-04-29T10:29:50.882Z,9.18
2019-04-29T10:32:21.129Z,9.14
2019-04-29T10:34:51.306Z,9.20
2019-04-29T10:37:23.768Z,9.25
2019-04-29T10:40:15.679Z,9.30
2019-04-29T10:43:11.356Z,9.21
2019-04-29T10:45:58.348Z,9.22
2019-04-29T10:48:36.539Z,9.14
2019-04-29T10:51:08.607Z,9.19
2019-04-29T10:53:40.099Z,9.13
2019-04-29T10:56:12.868Z,9.18
2019-04-29T10:58:43.152Z,9.46
2019-04-29T11:02:14.312Z,9.34
2019-04-29T11:04:46.014Z,9.24
2019-04-29T11:07:26.953Z,9.23
2019-04-29T11:10:03.265Z,9.25
2019-04-29T11:12:35.775Z,9.19
2019-04-29T11:15:09.885Z,9.27
2019-04-29T11:17:44.442Z,9.39
2019-04-29T11:20:15.792Z,9.40
2019-04-29T11:22:51.059Z,9.39
2019-04-29T11:25:51.047Z,9.48
2019-04-29T11:28:19.717Z,9.50
2019-04-29T11:30:49.870Z,9.44
2019-04-29T11:33:26.610Z,9.51
2019-04-29T11:36:03.918Z,9.57
2019-04-29T11:38:38.173Z,9.60
2019-04-29T11:41:06.117Z,9.59
2019-04-29T11:43:36.505Z,9.58
2019-04-29T11:46:09.900Z,9.58
2019-04-29T11:48:39.007Z,9.55
2019-04-29T11:51:34.059Z,9.54
2019-04-29T11:54:08.186Z,9.54
2019-04-29T11:56:39.608Z,9.48
2019-04-29T11:59:43.933Z,9.42
2019-04-29T12:02:45.238Z,9.42
2019-04-29T12:05:47.377Z,9.41
2019-04-29T12:08:18.466Z,9.39
2019-04-29T12:11:06.101Z,9.32
2019-04-29T12:13:28.512Z,9.33
2019-04-29T12:16:19.709Z,9.27
2019-04-29T12:19:00.135Z,9.35
2019-04-29T12:21:35.029Z,9.35
2019-04-29T12:24:07.747Z,9.29
2019-04-29T12:26:42.903Z,9.33
2019-04-29T12:29:13.758Z,9.34
2019-04-29T12:32:06.613Z,9.42
2019-04-29T12:34:54.610Z,9.59
2019-04-29T12:37:41.843Z,9.69
2019-04-29T12:40:29.711Z,9.62
2019-04-29T12:43:24.677Z,9.51
2019-04-29T12:46:11.849Z,9.28
2019-04-29T12:48:42.576Z,9.26
2019-04-29T12:51:16.954Z,9.31
2019-04-29T12:53:46.097Z,9.38
2019-04-29T12:56:18.953Z,9.33
2019-04-29T12:58:50.671Z,9.47
2019-04-29T13:01:58.028Z,9.48
2019-04-29T13:04:52.194Z,9.39
2019-04-29T13:07:50.539Z,9.38
2019-04-29T13:10:42.509Z,9.28
2019-04-29T13:13:11.585Z,9.28
2019-04-29T13:16:02.675Z,9.32
2019-04-29T13:18:53.734Z,9.37
2019-04-29T13:21:22.859Z,9.37
2019-04-29T13:24:05.273Z,9.27
2019-04-29T13:26:28.450Z,9.23
2019-04-29T13:29:01.192Z,9.27
2019-04-29T13:31:38.140Z,9.30
2019-04-29T13:34:22.387Z,9.43
2019-04-29T13:36:37.080Z,9.38
2019-04-29T13:39:09.040Z,9.49
2019-04-29T13:41:56.091Z,9.50
2019-04-29T13:44:11.840Z,9.46
2019-04-29T13:47:07.326Z,9.41
2019-04-29T13:49:49.149Z,9.41
2019-04-29T13:52:16.649Z,9.51
2019-04-29T13:54:47.029Z,9.45
2019-04-29T13:57:17.329Z,9.50
2019-04-29T14:00:08.254Z,9.57
2019-04-29T14:02:42.323Z,9.58
2019-04-29T14:05:15.288Z,9.68
2019-04-29T14:07:48.664Z,9.58
2019-04-29T14:10:17.843Z,9.58
2019-04-29T14:12:52.326Z,9.69
2019-04-29T14:15:20.569Z,9.63
2019-04-29T14:17:51.813Z,9.63
2019-04-29T14:20:21.990Z,9.74
2019-04-29T14:22:52.155Z,9.75
2019-04-29T14:25:25.119Z,9.72
2019-04-29T14:27:55.301Z,9.82
2019-04-29T14:30:37.881Z,9.93
2019-04-29T14:33:01.910Z,9.92
2019-04-29T14:35:48.355Z,10.08
2019-04-29T14:38:18.561Z,10.02
2019-04-29T14:40:48.727Z,10.02
2019-04-29T14:43:36.730Z,10.00
2019-04-29T14:46:30.065Z,10.17
2019-04-29T14:49:07.044Z,10.28
2019-04-29T14:51:38.041Z,10.34
2019-04-29T14:54:08.318Z,10.44
2019-04-29T14:56:38.596Z,10.51
2019-04-29T14:59:08.823Z,10.44
2019-04-29T15:01:48.338Z,10.33
2019-04-29T15:04:21.334Z,10.34
2019-04-29T15:06:52.678Z,10.39
2019-04-29T15:09:22.894Z,10.49
2019-04-29T15:12:21.743Z,10.78
2019-04-29T15:14:59.234Z,10.95
2019-04-29T15:17:46.700Z,11.21
2019-04-29T15:20:38.695Z,11.18
2019-04-29T15:23:08.926Z,10.99
2019-04-29T15:25:39.446Z,10.90
2019-04-29T15:28:09.697Z,11.03
2019-04-29T15:30:39.861Z,11.11
2019-04-29T15:33:10.055Z,11.41
2019-04-29T15:35:40.145Z,11.60
2019-04-29T15:38:10.303Z,11.61
2019-04-29T15:40:42.937Z,11.57
2019-04-29T15:43:12.584Z,11.62
2019-04-29T15:45:42.933Z,11.39
2019-04-29T15:48:13.237Z,11.26
2019-04-29T15:50:43.402Z,11.13
2019-04-29T15:53:13.935Z,11.23
2019-04-29T15:55:44.169Z,11.34
2019-04-29T15:58:15.979Z,11.53
2019-04-29T16:00:46.120Z,11.47
2019-04-29T16:03:17.711Z,11.38
2019-04-29T16:06:21.733Z,11.41
2019-04-29T16:09:00.704Z,11.48
2019-04-29T16:11:54.047Z,11.40
2019-04-29T16:14:24.591Z,11.24
2019-04-29T16:16:54.769Z,11.25
2019-04-29T16:19:24.975Z,11.25
2019-04-29T16:21:55.146Z,11.36
2019-04-29T16:27:01.442Z,11.25
2019-04-29T16:29:30.278Z,11.12
2019-04-29T16:32:03.280Z,11.20
2019-04-29T16:34:37.434Z,11.23
2019-04-29T16:37:04.835Z,11.22
2019-04-29T16:39:35.006Z,11.16
2019-04-29T16:42:26.275Z,11.13
2019-04-29T16:44:56.542Z,11.10
2019-04-29T16:47:26.741Z,11.06
2019-04-29T16:50:04.887Z,11.14
2019-04-29T16:52:29.727Z,11.09
2019-04-29T16:55:05.646Z,11.10
2019-04-29T16:57:33.537Z,11.08
2019-04-29T17:00:12.916Z,11.18
2019-04-29T17:02:42.307Z,11.16
2019-04-29T17:05:12.792Z,11.21
2019-04-29T17:07:44.721Z,11.20
2019-04-29T17:10:31.024Z,11.21
2019-04-29T17:13:02.815Z,11.21
2019-04-29T17:15:33.163Z,11.17
2019-04-29T17:18:04.072Z,11.15
2019-04-29T17:20:35.881Z,11.17
2019-04-29T17:23:09.271Z,11.20
2019-04-29T17:25:42.295Z,11.16
2019-04-29T17:28:28.840Z,11.19
2019-04-29T17:31:18.795Z,11.12
2019-04-29T17:33:53.234Z,11.11
2019-04-29T17:35:18.895Z,11.19
2019-04-29T17:36:25.774Z,11.05
2019-04-29T17:38:55.835Z,11.08
2019-04-29T17:41:28.400Z,11.09
2019-04-29T17:44:08.263Z,11.22
2019-04-29T17:47:11.561Z,11.23
2019-04-29T17:50:06.146Z,11.21
2019-04-29T17:52:42.306Z,11.13
2019-04-29T17:55:49.704Z,11.11
2019-04-29T17:58:30.007Z,11.12
2019-04-29T18:01:17.748Z,11.08
2019-04-29T18:04:16.727Z,11.07
2019-04-29T18:07:10.272Z,11.13
2019-04-29T18:09:47.802Z,11.14
2019-04-29T18:12:24.886Z,11.12
2019-04-29T18:14:55.305Z,11.03
2019-04-29T18:17:31.253Z,11.04
2019-04-29T18:20:30.705Z,11.05
2019-04-29T18:23:05.067Z,11.02
2019-04-29T18:26:04.846Z,11.08
2019-04-29T18:28:35.798Z,11.08
2019-04-29T18:31:11.379Z,11.08
2019-04-29T18:33:41.677Z,11.11
2019-04-29T18:36:21.769Z,11.08
2019-04-29T18:38:49.972Z,11.03
2019-04-29T18:41:24.802Z,11.05
2019-04-29T18:43:50.362Z,11.01
2019-04-29T18:46:20.536Z,11.00
2019-04-29T18:48:50.716Z,11.03
2019-04-29T18:51:25.692Z,11.00
2019-04-29T18:53:56.813Z,11.03
2019-04-29T18:56:27.362Z,11.09
2019-04-29T18:59:01.215Z,11.05
2019-04-29T19:01:32.390Z,11.01
2019-04-29T19:04:10.272Z,11.01
2019-04-29T19:06:40.638Z,11.04
2019-04-29T19:09:19.992Z,11.01
2019-04-29T19:11:46.634Z,11.03
2019-04-29T19:14:28.153Z,11.00
2019-04-29T19:17:00.057Z,10.90
2019-04-29T19:19:30.721Z,10.84
2019-04-29T19:22:07.641Z,10.81
2019-04-29T19:24:36.470Z,10.80
2019-04-29T19:27:09.682Z,10.75
2019-04-29T19:29:38.805Z,10.74
2019-04-29T19:32:09.791Z,10.67
2019-04-29T19:34:43.340Z,10.64
2019-04-29T19:37:12.027Z,10.68
2019-04-29T19:39:42.308Z,10.67
2019-04-29T19:42:12.510Z,10.74
2019-04-29T19:44:42.770Z,10.75
2019-04-29T19:47:15.244Z,10.76
2019-04-29T19:49:48.848Z,10.78
2019-04-29T19:52:28.712Z,10.64
2019-04-29T19:54:51.332Z,10.59
2019-04-29T19:57:21.621Z,10.58
2019-04-29T19:59:54.231Z,10.56
2019-04-29T20:02:25.935Z,10.56
2019-04-29T20:05:16.452Z,10.52
2019-04-29T20:07:50.640Z,10.57
2019-04-29T20:10:20.588Z,10.59
2019-04-29T20:12:53.605Z,10.66
2019-04-29T20:15:25.821Z,10.67
2019-04-29T20:18:19.726Z,10.65
2019-04-29T20:21:07.748Z,10.65
2019-04-29T20:23:36.967Z,10.69
2019-04-29T20:26:13.889Z,10.76
2019-04-29T20:28:39.125Z,10.74
2019-04-29T20:31:19.082Z,10.67
2019-04-29T20:33:46.821Z,10.68
2019-04-29T20:36:29.100Z,10.59
2019-04-29T20:38:48.935Z,10.50
2019-04-29T20:41:36.798Z,10.47
2019-04-29T20:43:51.790Z,10.42
2019-04-29T20:46:22.193Z,10.34
2019-04-29T20:48:55.694Z,10.43
2019-04-29T20:51:28.559Z,10.45
2019-04-29T20:54:03.184Z,10.34
2019-04-29T20:56:35.396Z,10.28
2019-04-29T20:59:11.552Z,10.17
2019-04-29T21:01:43.168Z,10.13
2019-04-29T21:04:12.343Z,10.08
2019-04-29T21:06:57.540Z,10.05
2019-04-29T21:09:16.662Z,9.98
2019-04-29T21:12:04.468Z,9.96
2019-04-29T21:14:39.589Z,9.94
2019-04-29T21:17:11.195Z,9.86
2019-04-29T21:19:41.513Z,9.80
2019-04-29T21:22:12.505Z,9.77
2019-04-29T21:24:45.320Z,9.78
2019-04-29T21:27:22.167Z,9.77
2019-04-29T21:29:49.795Z,9.74
2019-04-29T21:32:19.299Z,9.71
2019-04-29T21:34:55.945Z,9.62
2019-04-29T21:37:35.695Z,9.61
2019-04-29T21:40:35.084Z,9.58
2019-04-29T21:43:20.193Z,9.56
2019-04-29T21:45:50.335Z,9.48
2019-04-29T21:48:25.272Z,9.48
2019-04-29T21:50:52.369Z,9.42
2019-04-29T21:53:22.562Z,9.49
2019-04-29T21:55:52.679Z,9.62
2019-04-29T21:58:22.816Z,9.66
2019-04-29T22:00:55.953Z,9.64
2019-04-29T22:03:27.974Z,9.63
2019-04-29T22:06:00.385Z,9.62
2019-04-29T22:08:30.221Z,9.66
2019-04-29T22:11:05.102Z,9.61
2019-04-29T22:13:35.538Z,9.66
2019-04-29T22:16:04.327Z,9.65
2019-04-29T22:18:35.554Z,9.69
2019-04-29T22:21:08.564Z,9.59
2019-04-29T22:23:37.703Z,9.52
2019-04-29T22:26:08.025Z,9.43
2019-04-29T22:28:39.298Z,9.34
2019-04-29T22:31:09.518Z,9.32
2019-04-29T22:33:39.637Z,9.24
2019-04-29T22:36:10.158Z,9.20
2019-04-29T22:38:43.596Z,9.17
2019-04-29T22:41:21.976Z,9.12
2019-04-29T22:43:56.690Z,9.10
2019-04-29T22:46:27.866Z,9.06
2019-04-29T22:48:58.042Z,8.94
2019-04-29T22:51:28.244Z,8.94
2019-04-29T22:53:58.486Z,8.98
2019-04-29T22:56:29.366Z,8.95
2019-04-29T22:58:59.598Z,8.84
2019-04-29T23:01:42.363Z,8.76
2019-04-29T23:04:14.551Z,8.77
2019-04-29T23:06:44.660Z,8.68
2019-04-29T23:09:15.410Z,8.68
2019-04-29T23:11:48.388Z,8.64
2019-04-29T23:14:25.249Z,8.62
2019-04-29T23:16:56.306Z,8.62
2019-04-29T23:19:26.459Z,8.61
2019-04-29T23:22:34.819Z,8.51
2019-04-29T23:25:30.700Z,8.45
2019-04-29T23:28:01.096Z,8.44
2019-04-29T23:30:32.856Z,8.33
2019-04-29T23:33:04.202Z,8.39
2019-04-29T23:35:35.045Z,8.34
2019-04-29T23:38:09.271Z,8.31
2019-04-29T23:40:39.232Z,8.27
2019-04-29T23:43:09.762Z,8.19
2019-04-29T23:45:39.952Z,8.23
2019-04-29T23:48:10.103Z,8.18
2019-04-29T23:50:41.085Z,8.27
2019-04-29T23:53:11.366Z,8.28
2019-04-29T23:55:42.306Z,8.16
2019-04-29T23:58:32.530Z,8.14
